createdAt,value
2019-05-11T00:00:20.926Z,42.78
2019-05-11T00:02:50.246Z,40.50
2019-05-11T00:05:19.557Z,42.53
2019-05-11T00:07:48.823Z,40.45
2019-05-11T00:10:18.207Z,38.40
2019-05-11T00:12:47.512Z,37.53
2019-05-11T00:15:16.815Z,35.23
2019-05-11T00:17:46.338Z,37.15
2019-05-11T00:20:15.916Z,36.30
2019-05-11T00:22:45.211Z,32.03
2019-05-11T00:25:14.737Z,36.42
2019-05-11T00:27:44.113Z,37.13
2019-05-11T00:30:15.100Z,35.80
2019-05-11T00:32:44.403Z,30.43
2019-05-11T00:35:13.714Z,30.50
2019-05-11T00:37:43.012Z,32.08
2019-05-11T00:40:14.788Z,31.02
2019-05-11T00:42:43.797Z,29.67
2019-05-11T00:45:13.181Z,26.82
2019-05-11T00:47:42.684Z,30.95
2019-05-11T00:50:14.600Z,30.95
2019-05-11T00:52:43.889Z,27.32
2019-05-11T00:55:13.191Z,29.57
2019-05-11T00:57:42.492Z,26.85
2019-05-11T01:00:11.937Z,26.25
2019-05-11T01:02:41.242Z,28.15
2019-05-11T01:05:10.700Z,28.50
2019-05-11T01:07:39.993Z,24.65
2019-05-11T01:10:22.981Z,33.28
2019-05-11T01:12:40.627Z,26.15
2019-05-11T01:15:10.389Z,29.35
2019-05-11T01:17:41.311Z,29.27
2019-05-11T01:20:10.684Z,27.32
2019-05-11T01:22:39.987Z,27.60
2019-05-11T01:25:09.434Z,27.65
2019-05-11T01:27:38.752Z,29.02
2019-05-11T01:30:08.497Z,25.70
2019-05-11T01:32:37.931Z,30.88
2019-05-11T01:35:08.688Z,32.65
2019-05-11T01:37:38.102Z,31.42
2019-05-11T01:40:07.861Z,29.18
2019-05-11T01:42:37.168Z,27.07
2019-05-11T01:45:07.212Z,26.75
2019-05-11T01:47:36.539Z,25.62
2019-05-11T01:50:06.326Z,31.40
2019-05-11T01:52:35.607Z,28.98
2019-05-11T01:55:05.479Z,27.65
2019-05-11T01:57:34.795Z,27.52
2019-05-11T02:00:06.904Z,31.20
2019-05-11T02:02:36.508Z,35.03
2019-05-11T02:05:24.623Z,32.88
2019-05-11T02:07:53.898Z,29.52
2019-05-11T02:10:23.332Z,27.82
2019-05-11T02:12:53.071Z,30.65
2019-05-11T02:15:22.373Z,31.05
2019-05-11T02:17:51.718Z,26.95
2019-05-11T02:20:21.585Z,27.42
2019-05-11T02:22:51.064Z,30.75
2019-05-11T02:25:21.509Z,34.23
2019-05-11T02:27:50.815Z,28.70
2019-05-11T02:30:20.283Z,34.95
2019-05-11T02:32:49.594Z,34.23
2019-05-11T02:35:19.025Z,34.78
2019-05-11T02:37:48.336Z,35.17
2019-05-11T02:40:18.239Z,33.30
2019-05-11T02:42:47.538Z,31.17
2019-05-11T02:45:20.009Z,35.23
2019-05-11T02:47:49.808Z,31.50
2019-05-11T02:50:19.084Z,37.05
2019-05-11T02:52:48.560Z,32.42
2019-05-11T02:55:17.835Z,33.53
2019-05-11T02:57:47.128Z,34.53
2019-05-11T03:00:19.654Z,36.53
2019-05-11T03:02:48.959Z,32.03
2019-05-11T03:05:18.227Z,36.38
2019-05-11T03:07:47.535Z,34.50
2019-05-11T03:10:16.886Z,33.50
2019-05-11T03:12:46.183Z,35.17
2019-05-11T03:15:15.467Z,33.78
2019-05-11T03:17:44.797Z,35.48
2019-05-11T03:20:14.281Z,37.80
2019-05-11T03:22:43.555Z,38.70
2019-05-11T03:25:12.874Z,47.48
2019-05-11T03:27:42.158Z,45.58
2019-05-11T03:30:11.792Z,51.08
2019-05-11T03:32:41.063Z,42.88
2019-05-11T03:35:10.695Z,49.63
2019-05-11T03:37:40.007Z,45.63
2019-05-11T03:40:10.448Z,51.30
2019-05-11T03:42:39.738Z,46.55
2019-05-11T03:45:09.162Z,53.10
2019-05-11T03:47:38.445Z,52.55
2019-05-11T03:50:08.179Z,51.02
2019-05-11T03:52:37.463Z,46.75
2019-05-11T03:55:07.206Z,45.52
2019-05-11T03:57:36.478Z,52.05
2019-05-11T04:00:07.121Z,49.38
2019-05-11T04:02:36.389Z,57.80
2019-05-11T04:05:06.352Z,49.70
2019-05-11T04:07:35.620Z,53.17
2019-05-11T04:10:08.649Z,59.27
2019-05-11T04:12:37.928Z,52.60
2019-05-11T04:15:07.976Z,51.73
2019-05-11T04:17:37.244Z,51.83
2019-05-11T04:20:07.005Z,44.40
2019-05-11T04:22:36.287Z,50.43
2019-05-11T04:25:06.238Z,63.48
2019-05-11T04:27:35.663Z,51.50
2019-05-11T04:30:06.871Z,54.35
2019-05-11T04:32:36.143Z,45.35
2019-05-11T04:35:06.433Z,48.90
2019-05-11T04:37:35.695Z,47.62
2019-05-11T04:40:05.658Z,51.23
2019-05-11T04:42:53.508Z,47.60
2019-05-11T04:45:07.638Z,41.08
2019-05-11T04:47:37.166Z,48.98
2019-05-11T04:50:07.905Z,41.30
2019-05-11T04:52:37.209Z,35.68
2019-05-11T04:55:06.680Z,38.80
2019-05-11T04:57:35.972Z,36.45
2019-05-11T05:00:06.275Z,31.85
2019-05-11T05:02:35.574Z,37.88
2019-05-11T05:05:06.386Z,31.25
2019-05-11T05:07:35.736Z,33.02
2019-05-11T05:10:06.136Z,34.65
2019-05-11T05:12:35.440Z,37.90
2019-05-11T05:15:06.593Z,30.43
2019-05-11T05:17:35.907Z,30.62
2019-05-11T05:20:06.857Z,33.42
2019-05-11T05:22:36.305Z,32.98
2019-05-11T05:25:07.323Z,29.57
2019-05-11T05:27:36.637Z,27.60
2019-05-11T05:30:09.068Z,23.57
2019-05-11T05:32:38.358Z,22.87
2019-05-11T05:35:08.300Z,21.77
2019-05-11T05:37:37.603Z,21.02
2019-05-11T05:40:07.143Z,19.92
2019-05-11T05:42:36.441Z,21.82
2019-05-11T05:45:08.981Z,18.32
2019-05-11T05:47:38.293Z,24.90
2019-05-11T05:50:07.835Z,22.55
2019-05-11T05:52:37.136Z,21.12
2019-05-11T05:55:06.666Z,21.80
2019-05-11T05:57:35.978Z,21.48
2019-05-11T06:00:05.637Z,29.40
2019-05-11T06:02:34.920Z,21.07
2019-05-11T06:05:06.256Z,28.30
2019-05-11T06:07:35.557Z,22.07
2019-05-11T06:10:06.560Z,25.92
2019-05-11T06:12:35.858Z,25.05
2019-05-11T06:15:08.252Z,26.90
2019-05-11T06:17:37.570Z,23.90
2019-05-11T06:20:08.011Z,25.43
2019-05-11T06:22:38.890Z,29.65
2019-05-11T06:25:08.264Z,29.42
2019-05-11T06:27:37.639Z,27.00
2019-05-11T06:30:07.337Z,30.62
2019-05-11T06:32:36.655Z,31.33
2019-05-11T06:35:07.493Z,31.02
2019-05-11T06:37:36.801Z,32.78
2019-05-11T06:40:07.550Z,33.95
2019-05-11T06:42:36.852Z,26.52
2019-05-11T06:45:06.849Z,29.75
2019-05-11T06:47:36.166Z,21.73
2019-05-11T06:50:06.354Z,29.72
2019-05-11T06:52:35.668Z,29.20
2019-05-11T06:55:06.416Z,29.12
2019-05-11T06:57:35.740Z,29.50
2019-05-11T07:00:06.088Z,29.10
2019-05-11T07:02:35.382Z,26.48
2019-05-11T07:05:07.145Z,32.17
2019-05-11T07:07:47.209Z,33.18
2019-05-11T07:10:07.610Z,32.63
2019-05-11T07:12:36.930Z,32.23
2019-05-11T07:15:07.028Z,27.40
2019-05-11T07:17:36.649Z,35.52
2019-05-11T07:20:09.324Z,27.22
2019-05-11T07:22:38.622Z,30.12
2019-05-11T07:25:09.601Z,33.58
2019-05-11T07:27:38.951Z,30.30
2019-05-11T07:30:08.508Z,30.32
2019-05-11T07:32:38.354Z,29.63
2019-05-11T07:35:08.670Z,28.92
2019-05-11T07:37:38.686Z,28.65
2019-05-11T07:40:08.418Z,29.70
2019-05-11T07:42:38.222Z,27.73
2019-05-11T07:45:09.003Z,32.73
2019-05-11T07:47:38.548Z,29.02
2019-05-11T07:50:09.219Z,27.37
2019-05-11T07:52:38.541Z,25.95
2019-05-11T07:55:09.102Z,28.83
2019-05-11T07:57:39.277Z,24.35
2019-05-11T08:00:09.745Z,28.83
2019-05-11T08:02:39.137Z,28.10
2019-05-11T08:05:09.877Z,26.73
2019-05-11T08:07:39.176Z,27.10
2019-05-11T08:10:08.653Z,27.73
2019-05-11T08:12:39.075Z,25.82
2019-05-11T08:15:13.430Z,28.10
2019-05-11T08:17:39.965Z,29.00
2019-05-11T08:20:09.917Z,26.90
2019-05-11T08:22:39.251Z,28.77
2019-05-11T08:25:09.482Z,25.57
2019-05-11T08:27:38.873Z,24.95
2019-05-11T08:30:12.890Z,27.80
2019-05-11T08:32:42.191Z,27.22
2019-05-11T08:35:11.767Z,27.20
2019-05-11T08:37:42.132Z,25.97
2019-05-11T08:40:11.796Z,28.20
2019-05-11T08:42:41.081Z,25.12
2019-05-11T08:45:19.974Z,30.08
2019-05-11T08:47:41.588Z,22.50
2019-05-11T08:50:15.077Z,29.20
2019-05-11T08:52:42.746Z,26.27
2019-05-11T08:55:12.350Z,21.37
2019-05-11T08:57:41.658Z,24.15
2019-05-11T09:00:13.274Z,28.25
2019-05-11T09:02:46.759Z,21.97
2019-05-11T09:05:14.940Z,25.43
2019-05-11T09:07:44.248Z,22.45
2019-05-11T09:10:15.465Z,16.93
2019-05-11T09:12:44.713Z,20.75
2019-05-11T09:15:31.561Z,21.70
2019-05-11T09:17:45.495Z,19.75
2019-05-11T09:20:17.843Z,23.60
2019-05-11T09:22:48.508Z,16.93
2019-05-11T09:25:18.466Z,15.50
2019-05-11T09:27:48.444Z,16.32
2019-05-11T09:30:18.629Z,16.80
2019-05-11T09:32:48.266Z,12.80
2019-05-11T09:35:18.868Z,15.70
2019-05-11T09:40:18.643Z,13.98
2019-05-11T09:42:48.179Z,13.30
2019-05-11T09:45:18.723Z,15.80
2019-05-11T09:47:48.470Z,13.28
2019-05-11T09:50:18.160Z,18.02
2019-05-11T09:52:49.178Z,11.75
2019-05-11T09:55:19.132Z,15.23
2019-05-11T09:57:48.968Z,12.07
2019-05-11T10:00:19.022Z,14.00
2019-05-11T10:02:48.936Z,16.37
2019-05-11T10:05:19.007Z,12.90
2019-05-11T10:07:48.805Z,13.90
2019-05-11T10:10:18.735Z,15.10
2019-05-11T10:12:48.963Z,14.38
2019-05-11T10:15:19.485Z,11.85
2019-05-11T10:17:49.872Z,17.10
2019-05-11T10:20:19.160Z,13.75
2019-05-11T10:22:48.814Z,11.55
2019-05-11T10:25:18.446Z,12.70
2019-05-11T10:27:48.969Z,10.60
2019-05-11T10:30:18.790Z,10.00
2019-05-11T10:32:48.636Z,14.18
2019-05-11T10:35:18.531Z,18.15
2019-05-11T10:37:48.027Z,12.50
2019-05-11T10:40:18.897Z,12.53
2019-05-11T10:42:48.626Z,10.45
2019-05-11T10:45:18.185Z,10.53
2019-05-11T10:47:48.919Z,10.35
2019-05-11T10:50:19.010Z,13.32
2019-05-11T10:52:48.634Z,10.65
2019-05-11T10:55:19.270Z,12.55
2019-05-11T10:57:49.803Z,12.25
2019-05-11T11:00:20.981Z,10.95
2019-05-11T11:02:50.314Z,10.72
2019-05-11T11:05:19.855Z,13.38
2019-05-11T11:07:49.246Z,12.20
2019-05-11T11:10:18.787Z,10.32
2019-05-11T11:12:48.989Z,12.23
2019-05-11T11:15:19.440Z,11.57
2019-05-11T11:17:49.116Z,14.80
2019-05-11T11:20:18.891Z,13.25
2019-05-11T11:22:48.537Z,10.18
2019-05-11T11:25:19.919Z,10.70
2019-05-11T11:27:49.215Z,13.18
2019-05-11T11:30:19.450Z,10.53
2019-05-11T11:32:48.827Z,9.50
2019-05-11T11:35:18.877Z,15.18
2019-05-11T11:37:48.386Z,12.58
2019-05-11T11:40:19.489Z,12.15
2019-05-11T11:42:48.783Z,11.05
2019-05-11T11:45:18.475Z,13.10
2019-05-11T11:47:49.400Z,13.20
2019-05-11T11:50:19.551Z,10.55
2019-05-11T11:52:48.866Z,11.20
2019-05-11T11:55:18.743Z,8.25
2019-05-11T11:57:50.443Z,11.08
2019-05-11T12:00:20.821Z,11.03
2019-05-11T12:02:50.367Z,9.70
2019-05-11T12:05:21.286Z,11.03
2019-05-11T12:07:50.556Z,10.95
2019-05-11T12:10:19.855Z,11.73
2019-05-11T12:12:49.150Z,9.78
2019-05-11T12:15:19.582Z,9.20
2019-05-11T12:17:48.977Z,7.80
2019-05-11T12:20:18.433Z,8.33
2019-05-11T12:22:47.829Z,11.15
2019-05-11T12:25:18.600Z,8.03
2019-05-11T12:27:50.703Z,10.23
2019-05-11T12:30:20.104Z,10.85
2019-05-11T12:32:50.427Z,9.05
2019-05-11T12:35:19.930Z,8.20
2019-05-11T12:37:49.221Z,11.68
2019-05-11T12:40:18.939Z,9.75
2019-05-11T12:42:49.018Z,10.30
2019-05-11T12:45:18.517Z,8.65
2019-05-11T12:47:48.209Z,11.53
2019-05-11T12:50:18.619Z,9.98
2019-05-11T12:52:48.128Z,11.30
2019-05-11T12:55:18.060Z,9.78
2019-05-11T12:57:48.888Z,9.95
2019-05-11T13:00:18.555Z,9.43
2019-05-11T13:02:48.502Z,9.85
2019-05-11T13:05:18.209Z,10.93
2019-05-11T13:07:48.358Z,9.05
2019-05-11T13:10:18.018Z,11.03
2019-05-11T13:12:49.487Z,12.50
2019-05-11T13:15:19.244Z,11.25
2019-05-11T13:17:49.286Z,11.35
2019-05-11T13:20:18.840Z,12.23
2019-05-11T13:22:48.852Z,10.68
2019-05-11T13:25:18.577Z,10.05
2019-05-11T13:27:49.431Z,11.75
2019-05-11T13:30:18.964Z,10.63
2019-05-11T13:32:49.063Z,12.53
2019-05-11T13:35:18.612Z,12.30
2019-05-11T13:37:48.160Z,9.88
2019-05-11T13:40:18.512Z,12.35
2019-05-11T13:42:49.007Z,9.95
2019-05-11T13:45:18.749Z,8.85
2019-05-11T13:47:55.369Z,12.95
2019-05-11T13:50:19.257Z,10.75
2019-05-11T13:52:48.551Z,10.72
2019-05-11T13:55:18.352Z,11.93
2019-05-11T13:57:48.549Z,11.60
2019-05-11T14:00:18.301Z,13.88
2019-05-11T14:02:48.611Z,13.08
2019-05-11T14:05:18.286Z,10.95
2019-05-11T14:07:48.365Z,15.80
2019-05-11T14:10:18.260Z,12.70
2019-05-11T14:12:47.951Z,14.18
2019-05-11T14:15:18.860Z,15.18
2019-05-11T14:18:04.418Z,13.80
2019-05-11T14:20:20.508Z,14.10
2019-05-11T14:22:49.794Z,13.25
2019-05-11T14:25:19.062Z,21.57
2019-05-11T14:27:48.379Z,10.72
2019-05-11T14:30:19.105Z,10.38
2019-05-11T14:32:48.746Z,10.32
2019-05-11T14:35:18.812Z,9.60
2019-05-11T14:37:49.468Z,11.00
2019-05-11T14:40:18.753Z,11.08
2019-05-11T14:42:48.951Z,10.72
2019-05-11T14:45:19.835Z,13.15
2019-05-11T14:47:49.166Z,12.63
2019-05-11T14:50:19.097Z,9.40
2019-05-11T14:52:49.186Z,9.13
2019-05-11T14:55:18.758Z,9.05
2019-05-11T14:57:49.524Z,12.07
2019-05-11T15:00:19.054Z,9.20
2019-05-11T15:02:49.660Z,7.72
2019-05-11T15:05:20.426Z,9.70
2019-05-11T15:07:52.386Z,13.03
2019-05-11T15:10:22.233Z,9.65
2019-05-11T15:12:51.534Z,9.85
2019-05-11T15:15:21.100Z,10.53
2019-05-11T15:17:50.391Z,11.08
2019-05-11T15:20:19.843Z,13.70
2019-05-11T15:22:49.259Z,10.20
2019-05-11T15:25:19.951Z,10.60
2019-05-11T15:27:49.614Z,12.45
2019-05-11T15:30:19.726Z,10.75
2019-05-11T15:32:49.135Z,11.12
2019-05-11T15:35:19.054Z,12.37
2019-05-11T15:37:48.682Z,9.68
2019-05-11T15:40:22.665Z,8.13
2019-05-11T15:42:52.023Z,9.48
2019-05-11T15:45:21.468Z,9.70
2019-05-11T15:47:50.839Z,10.28
2019-05-11T15:50:20.579Z,12.73
2019-05-11T15:52:49.970Z,10.13
2019-05-11T15:55:20.732Z,8.48
2019-05-11T15:57:50.021Z,9.43
2019-05-11T16:00:19.474Z,9.43
2019-05-11T16:02:49.231Z,13.53
2019-05-11T16:05:18.877Z,11.18
2019-05-11T16:07:49.269Z,7.35
2019-05-11T16:10:19.304Z,8.70
2019-05-11T16:12:49.156Z,10.20
2019-05-11T16:15:19.612Z,11.18
2019-05-11T16:17:49.802Z,13.28
2019-05-11T16:20:20.574Z,10.95
2019-05-11T16:22:49.885Z,7.20
2019-05-11T16:25:20.044Z,7.58
2019-05-11T16:27:49.643Z,7.37
2019-05-11T16:30:21.488Z,6.70
2019-05-11T16:32:50.508Z,8.45
2019-05-11T16:35:19.860Z,9.40
2019-05-11T16:37:49.139Z,6.53
2019-05-11T16:40:20.831Z,11.68
2019-05-11T16:42:50.833Z,11.38
2019-05-11T16:45:23.492Z,8.33
2019-05-11T16:47:51.298Z,6.47
2019-05-11T16:50:20.580Z,7.00
2019-05-11T16:52:49.856Z,9.78
2019-05-11T16:55:19.166Z,7.72
2019-05-11T16:57:48.984Z,6.85
2019-05-11T17:00:18.490Z,8.25
2019-05-11T17:02:49.108Z,12.15
2019-05-11T17:05:26.322Z,6.58
2019-05-11T17:07:49.877Z,7.30
2019-05-11T17:10:19.261Z,7.40
2019-05-11T17:12:49.014Z,8.38
2019-05-11T17:15:19.069Z,5.15
2019-05-11T17:17:49.285Z,8.75
2019-05-11T17:20:19.176Z,6.17
2019-05-11T17:22:48.959Z,7.60
2019-05-11T17:25:19.139Z,10.20
2019-05-11T17:27:49.181Z,9.13
2019-05-11T17:30:19.804Z,7.03
2019-05-11T17:32:49.834Z,7.83
2019-05-11T17:35:19.649Z,7.12
2019-05-11T17:37:49.046Z,9.83
2019-05-11T17:40:23.126Z,5.67
2019-05-11T17:42:53.257Z,7.28
2019-05-11T17:45:20.788Z,10.60
2019-05-11T17:47:50.151Z,8.70
2019-05-11T17:50:19.509Z,10.63
2019-05-11T17:52:48.787Z,7.95
2019-05-11T17:55:18.617Z,8.25
2019-05-11T17:57:49.525Z,10.20
2019-05-11T18:00:20.045Z,9.20
2019-05-11T18:02:49.644Z,7.55
2019-05-11T18:05:18.942Z,6.70
2019-05-11T18:07:48.267Z,9.73
2019-05-11T18:10:18.453Z,9.93
2019-05-11T18:12:48.561Z,10.72
2019-05-11T18:15:18.922Z,8.00
2019-05-11T18:17:48.974Z,7.10
2019-05-11T18:20:21.968Z,8.88
2019-05-11T18:22:50.960Z,8.80
2019-05-11T18:25:20.509Z,9.30
2019-05-11T18:27:49.825Z,10.05
2019-05-11T18:30:20.202Z,10.75
2019-05-11T18:32:49.475Z,13.10
2019-05-11T18:35:19.653Z,6.33
2019-05-11T18:37:50.285Z,8.35
2019-05-11T18:40:19.661Z,6.35
2019-05-11T18:42:49.226Z,11.83
2019-05-11T18:45:19.328Z,7.83
2019-05-11T18:47:49.286Z,6.70
2019-05-11T18:50:29.877Z,7.03
2019-05-11T18:52:50.149Z,8.08
2019-05-11T18:55:19.443Z,7.80
2019-05-11T18:57:49.383Z,6.58
2019-05-11T19:00:20.006Z,6.50
2019-05-11T19:02:49.869Z,7.35
2019-05-11T19:05:20.149Z,9.08
2019-05-11T19:07:49.440Z,11.03
2019-05-11T19:10:18.929Z,10.35
2019-05-11T19:12:49.243Z,6.30
2019-05-11T19:15:19.327Z,9.38
2019-05-11T19:17:49.288Z,5.10
2019-05-11T19:20:18.867Z,8.60
2019-05-11T19:22:48.137Z,9.73
2019-05-11T19:25:18.213Z,6.90
2019-05-11T19:27:50.682Z,7.75
2019-05-11T19:30:19.967Z,8.25
2019-05-11T19:32:49.257Z,7.80
2019-05-11T19:35:21.070Z,8.00
2019-05-11T19:37:49.512Z,7.08
2019-05-11T19:40:18.787Z,8.48
2019-05-11T19:42:53.867Z,6.22
2019-05-11T19:45:23.784Z,8.03
2019-05-11T19:47:53.370Z,8.05
2019-05-11T19:50:24.189Z,12.03
2019-05-11T19:52:53.493Z,10.00
2019-05-11T19:55:22.814Z,7.40
2019-05-11T19:57:53.170Z,6.70
2019-05-11T20:00:22.544Z,6.53
2019-05-11T20:02:51.838Z,9.53
2019-05-11T20:05:21.153Z,8.58
2019-05-11T20:07:50.442Z,7.35
2019-05-11T20:10:19.736Z,6.30
2019-05-11T20:12:49.031Z,8.73
2019-05-11T20:15:19.409Z,7.90
2019-05-11T20:17:49.122Z,7.33
2019-05-11T20:20:18.950Z,8.48
2019-05-11T20:22:48.750Z,9.30
2019-05-11T20:25:19.132Z,14.50
2019-05-11T20:27:49.031Z,7.35
2019-05-11T20:30:19.311Z,7.20
2019-05-11T20:32:49.363Z,8.50
2019-05-11T20:35:18.925Z,4.78
2019-05-11T20:37:48.323Z,7.65
2019-05-11T20:40:18.500Z,7.03
2019-05-11T20:42:48.673Z,8.93
2019-05-11T20:45:18.937Z,10.78
2019-05-11T20:47:49.399Z,8.98
2019-05-11T20:50:18.897Z,10.53
2019-05-11T20:52:48.668Z,7.72
2019-05-11T20:55:18.478Z,13.75
2019-05-11T20:57:48.671Z,6.40
2019-05-11T21:00:18.830Z,9.73
2019-05-11T21:02:49.122Z,6.62
2019-05-11T21:05:18.714Z,12.35
2019-05-11T21:07:48.121Z,12.13
2019-05-11T21:10:17.487Z,6.65
2019-05-11T21:12:46.914Z,13.08
2019-05-11T21:15:17.304Z,8.83
2019-05-11T21:17:48.194Z,11.22
2019-05-11T21:20:18.211Z,15.08
2019-05-11T21:22:48.622Z,10.40
2019-05-11T21:25:18.434Z,11.33
2019-05-11T21:27:48.615Z,11.30
2019-05-11T21:30:18.745Z,12.70
2019-05-11T21:32:48.273Z,11.93
2019-05-11T21:35:19.181Z,9.93
2019-05-11T21:37:48.834Z,10.23
2019-05-11T21:40:18.373Z,15.08
2019-05-11T21:42:47.793Z,12.47
2019-05-11T21:45:18.435Z,9.83
2019-05-11T21:47:48.892Z,10.38
2019-05-11T21:50:19.219Z,12.28
2019-05-11T21:52:48.662Z,11.57
2019-05-11T21:55:19.142Z,11.83
2019-05-11T21:57:49.839Z,11.53
2019-05-11T22:00:19.763Z,8.38
2019-05-11T22:02:50.666Z,10.50
2019-05-11T22:05:20.848Z,14.35
2019-05-11T22:07:50.437Z,9.90
2019-05-11T22:10:20.426Z,9.50
2019-05-11T22:12:49.696Z,10.32
2019-05-11T22:15:19.070Z,8.38
2019-05-11T22:17:49.417Z,10.53
2019-05-11T22:20:18.716Z,14.75
2019-05-11T22:22:48.148Z,9.93
2019-05-11T22:25:18.304Z,10.78
2019-05-11T22:27:48.842Z,9.68
2019-05-11T22:30:20.409Z,9.25
2019-05-11T22:32:49.732Z,10.25
2019-05-11T22:35:18.997Z,8.83
2019-05-11T22:37:49.058Z,10.15
2019-05-11T22:40:18.737Z,9.63
2019-05-11T22:42:48.052Z,10.23
2019-05-11T22:45:18.689Z,9.10
2019-05-11T22:47:48.322Z,8.33
2019-05-11T22:50:18.670Z,9.55
2019-05-11T22:52:48.486Z,9.75
2019-05-11T22:55:18.846Z,12.60
2019-05-11T22:57:48.771Z,11.15
2019-05-11T23:00:21.404Z,7.50
2019-05-11T23:02:53.400Z,8.23
2019-05-11T23:05:24.189Z,10.08
2019-05-11T23:07:53.482Z,13.90
2019-05-11T23:10:23.925Z,10.18
2019-05-11T23:12:53.214Z,8.40
2019-05-11T23:15:22.495Z,7.65
2019-05-11T23:17:51.846Z,10.60
2019-05-11T23:20:22.695Z,7.58
2019-05-11T23:22:57.909Z,11.05
2019-05-11T23:25:22.989Z,12.82
2019-05-11T23:27:53.147Z,12.23
2019-05-11T23:30:22.512Z,8.55
2019-05-11T23:32:53.465Z,10.90
2019-05-11T23:35:22.897Z,10.50
2019-05-11T23:37:52.200Z,13.83
2019-05-11T23:40:22.874Z,8.63
2019-05-11T23:42:52.863Z,8.80
2019-05-11T23:45:22.146Z,9.55
2019-05-11T23:47:51.437Z,12.00
2019-05-11T23:50:21.018Z,13.00
2019-05-11T23:53:05.485Z,10.32
2019-05-11T23:55:22.933Z,7.50
2019-05-11T23:57:52.219Z,9.43
